createdAt,value
2019-04-07T00:00:16.485Z,85.87
2019-04-07T00:02:08.765Z,85.87
2019-04-07T00:03:08.777Z,85.77
2019-04-07T00:05:10.993Z,85.58
2019-04-07T00:06:01.694Z,85.39
2019-04-07T00:07:55.206Z,85.87
2019-04-07T00:08:54.611Z,85.68
2019-04-07T00:10:47.836Z,85.68
2019-04-07T00:11:47.532Z,85.87
2019-04-07T00:13:40.436Z,85.97
2019-04-07T00:14:40.449Z,86.54
2019-04-07T00:16:33.361Z,87.02
2019-04-07T00:17:33.365Z,87.11
2019-04-07T00:19:26.277Z,87.11
2019-04-07T00:20:26.721Z,87.02
2019-04-07T00:22:19.733Z,87.16
2019-04-07T00:23:19.202Z,87.16
2019-04-07T00:25:12.113Z,87.59
2019-04-07T00:26:12.757Z,87.64
2019-04-07T00:28:05.484Z,87.45
2019-04-07T00:29:05.034Z,87.54
2019-04-07T00:30:57.946Z,87.64
2019-04-07T00:31:57.952Z,87.83
2019-04-07T00:33:51.626Z,88.31
2019-04-07T00:34:50.869Z,88.31
2019-04-07T00:36:43.774Z,88.31
2019-04-07T00:37:44.008Z,88.31
2019-04-07T00:39:37.696Z,88.40
2019-04-07T00:40:38.184Z,88.31
2019-04-07T00:42:30.609Z,88.21
2019-04-07T00:43:30.630Z,88.21
2019-04-07T00:45:23.966Z,88.88
2019-04-07T00:46:23.538Z,88.98
2019-04-07T00:48:16.868Z,88.50
2019-04-07T00:49:16.455Z,88.69
2019-04-07T00:51:09.365Z,88.59
2019-04-07T00:52:09.441Z,88.59
2019-04-07T00:54:02.384Z,88.78
2019-04-07T00:55:02.355Z,88.59
2019-04-07T00:56:55.653Z,88.59
2019-04-07T00:57:55.207Z,88.59
2019-04-07T00:59:48.837Z,88.88
2019-04-07T01:00:48.146Z,88.50
2019-04-07T01:02:41.484Z,88.69
2019-04-07T01:03:41.422Z,88.40
2019-04-07T01:05:38.394Z,88.98
2019-04-07T01:06:34.087Z,88.98
2019-04-07T01:08:27.140Z,89.07
2019-04-07T01:09:26.878Z,88.59
2019-04-07T01:11:20.073Z,88.88
2019-04-07T01:12:20.370Z,88.98
2019-04-07T01:14:12.711Z,88.78
2019-04-07T01:15:12.717Z,88.69
2019-04-07T01:17:06.159Z,88.78
2019-04-07T01:18:05.638Z,89.36
2019-04-07T01:19:58.651Z,89.54
2019-04-07T01:20:58.552Z,89.26
2019-04-07T01:22:51.599Z,89.93
2019-04-07T01:23:51.746Z,89.74
2019-04-07T01:25:44.623Z,89.54
2019-04-07T01:26:44.723Z,89.83
2019-04-07T01:28:37.506Z,90.12
2019-04-07T01:29:37.306Z,89.83
2019-04-07T01:31:30.265Z,89.93
2019-04-07T01:32:30.223Z,89.50
2019-04-07T01:34:23.134Z,89.69
2019-04-07T01:35:23.139Z,89.98
2019-04-07T01:37:16.251Z,90.17
2019-04-07T01:38:16.695Z,90.08
2019-04-07T01:40:09.056Z,89.79
2019-04-07T01:41:08.976Z,89.79
2019-04-07T01:43:01.883Z,90.08
2019-04-07T01:44:02.625Z,89.69
2019-04-07T01:45:54.804Z,90.08
2019-04-07T01:46:54.808Z,89.98
2019-04-07T01:48:47.713Z,90.36
2019-04-07T01:49:47.723Z,89.98
2019-04-07T01:51:41.060Z,90.08
2019-04-07T01:52:40.641Z,90.36
2019-04-07T01:54:33.550Z,90.08
2019-04-07T01:55:33.570Z,90.22
2019-04-07T01:57:26.461Z,89.83
2019-04-07T01:58:26.479Z,89.69
2019-04-07T02:00:19.385Z,89.83
2019-04-07T02:01:19.394Z,89.83
2019-04-07T02:03:12.295Z,89.26
2019-04-07T02:04:12.759Z,88.88
2019-04-07T02:06:05.994Z,89.22
2019-04-07T02:07:05.738Z,89.36
2019-04-07T02:08:58.317Z,89.40
2019-04-07T02:09:58.662Z,89.31
2019-04-07T02:11:51.047Z,88.55
2019-04-07T02:12:51.060Z,89.22
2019-04-07T02:14:44.457Z,89.12
2019-04-07T02:15:44.578Z,89.22
2019-04-07T02:17:37.265Z,89.31
2019-04-07T02:18:36.890Z,89.22
2019-04-07T02:20:29.806Z,89.31
2019-04-07T02:21:29.806Z,89.22
2019-04-07T02:23:22.743Z,89.31
2019-04-07T02:24:23.418Z,89.31
2019-04-07T02:26:16.343Z,89.31
2019-04-07T02:27:16.366Z,89.12
2019-04-07T02:29:09.141Z,89.31
2019-04-07T02:30:08.554Z,89.60
2019-04-07T02:32:01.545Z,88.55
2019-04-07T02:33:02.286Z,88.55
2019-04-07T02:34:54.381Z,88.84
2019-04-07T02:35:54.384Z,88.74
2019-04-07T02:37:48.238Z,88.55
2019-04-07T02:38:47.301Z,88.64
2019-04-07T02:40:40.727Z,88.64
2019-04-07T02:41:40.304Z,88.55
2019-04-07T02:43:33.936Z,88.74
2019-04-07T02:44:33.615Z,88.55
2019-04-07T02:46:26.999Z,88.55
2019-04-07T02:47:26.045Z,88.36
2019-04-07T02:49:19.865Z,88.26
2019-04-07T02:50:18.961Z,88.26
2019-04-07T02:52:11.868Z,88.17
2019-04-07T02:53:13.363Z,87.88
2019-04-07T02:55:04.807Z,87.69
2019-04-07T02:56:05.372Z,87.88
2019-04-07T02:57:58.223Z,87.31
2019-04-07T02:58:58.150Z,87.69
2019-04-07T03:00:50.888Z,87.50
2019-04-07T03:01:50.636Z,87.60
2019-04-07T03:03:43.539Z,87.69
2019-04-07T03:04:44.411Z,87.12
2019-04-07T03:06:45.341Z,87.79
2019-04-07T03:07:36.466Z,87.98
2019-04-07T03:09:29.982Z,87.98
2019-04-07T03:10:29.378Z,87.79
2019-04-07T03:12:23.327Z,87.31
2019-04-07T03:13:22.934Z,87.21
2019-04-07T03:15:16.071Z,87.40
2019-04-07T03:16:15.766Z,87.69
2019-04-07T03:18:08.905Z,87.46
2019-04-07T03:19:08.781Z,87.50
2019-04-07T03:21:01.161Z,87.55
2019-04-07T03:22:01.194Z,87.55
2019-04-07T03:23:53.947Z,87.46
2019-04-07T03:24:54.676Z,87.46
2019-04-07T03:26:47.731Z,87.27
2019-04-07T03:27:46.878Z,87.17
2019-04-07T03:29:40.287Z,87.84
2019-04-07T03:30:40.891Z,87.74
2019-04-07T03:32:33.965Z,88.22
2019-04-07T03:33:35.255Z,87.89
2019-04-07T03:35:27.927Z,87.89
2019-04-07T03:36:29.098Z,88.56
2019-04-07T03:38:19.012Z,88.84
2019-04-07T03:39:19.133Z,88.56
2019-04-07T03:41:11.953Z,88.46
2019-04-07T03:42:12.451Z,88.84
2019-04-07T03:44:05.961Z,89.13
2019-04-07T03:45:04.477Z,89.22
2019-04-07T03:46:57.263Z,89.32
2019-04-07T03:47:57.271Z,89.13
2019-04-07T03:49:50.882Z,89.32
2019-04-07T03:50:50.824Z,89.70
2019-04-07T03:52:43.088Z,89.70
2019-04-07T03:53:43.098Z,89.79
2019-04-07T03:55:36.571Z,90.08
2019-04-07T03:56:36.012Z,90.56
2019-04-07T03:58:28.913Z,90.36
2019-04-07T03:59:29.023Z,90.46
2019-04-07T04:01:22.233Z,90.46
2019-04-07T04:02:21.974Z,90.46
2019-04-07T04:04:15.600Z,90.65
2019-04-07T04:05:14.771Z,90.65
2019-04-07T04:07:20.713Z,90.46
2019-04-07T04:08:07.672Z,90.65
2019-04-07T04:10:01.085Z,90.56
2019-04-07T04:11:00.581Z,90.75
2019-04-07T04:12:53.480Z,90.84
2019-04-07T04:13:53.493Z,90.94
2019-04-07T04:15:46.853Z,90.51
2019-04-07T04:16:46.403Z,90.13
2019-04-07T04:18:39.405Z,90.22
2019-04-07T04:19:39.318Z,90.70
2019-04-07T04:21:32.870Z,90.70
2019-04-07T04:22:32.529Z,91.37
2019-04-07T04:24:25.137Z,90.80
2019-04-07T04:25:25.146Z,91.08
2019-04-07T04:27:18.057Z,90.80
2019-04-07T04:28:18.128Z,90.89
2019-04-07T04:30:12.128Z,90.99
2019-04-07T04:31:11.107Z,91.27
2019-04-07T04:33:04.075Z,91.84
2019-04-07T04:34:03.885Z,91.56
2019-04-07T04:35:56.803Z,92.03
2019-04-07T04:36:56.809Z,91.65
2019-04-07T04:38:50.306Z,91.75
2019-04-07T04:39:49.721Z,92.13
2019-04-07T04:41:42.764Z,92.13
2019-04-07T04:42:42.635Z,92.13
2019-04-07T04:44:35.911Z,92.41
2019-04-07T04:45:36.267Z,92.22
2019-04-07T04:47:28.449Z,92.60
2019-04-07T04:48:28.460Z,92.70
2019-04-07T04:50:22.152Z,92.41
2019-04-07T04:51:21.379Z,92.60
2019-04-07T04:53:14.996Z,92.41
2019-04-07T04:54:14.496Z,92.99
2019-04-07T04:56:07.640Z,92.51
2019-04-07T04:57:09.158Z,92.60
2019-04-07T04:59:00.105Z,92.70
2019-04-07T05:00:00.119Z,92.60
2019-04-07T05:01:53.160Z,92.32
2019-04-07T05:02:53.030Z,92.03
2019-04-07T05:04:45.941Z,92.41
2019-04-07T05:05:46.887Z,92.41
2019-04-07T05:07:50.123Z,92.22
2019-04-07T05:08:39.184Z,92.13
2019-04-07T05:10:32.236Z,91.94
2019-04-07T05:11:31.770Z,92.41
2019-04-07T05:13:25.047Z,92.22
2019-04-07T05:14:25.774Z,92.13
2019-04-07T05:16:17.631Z,91.94
2019-04-07T05:17:17.599Z,92.70
2019-04-07T05:19:11.042Z,92.13
2019-04-07T05:20:10.941Z,91.75
2019-04-07T05:22:03.417Z,92.03
2019-04-07T05:23:04.046Z,92.03
2019-04-07T05:24:56.687Z,92.03
2019-04-07T05:25:56.337Z,92.13
2019-04-07T05:27:49.295Z,92.13
2019-04-07T05:28:49.252Z,92.03
2019-04-07T05:30:42.516Z,92.51
2019-04-07T05:31:42.167Z,92.22
2019-04-07T05:33:35.534Z,93.13
2019-04-07T05:34:35.398Z,92.65
2019-04-07T05:36:28.052Z,92.79
2019-04-07T05:37:28.361Z,92.84
2019-04-07T05:39:20.928Z,91.89
2019-04-07T05:40:21.309Z,92.55
2019-04-07T05:42:14.646Z,92.36
2019-04-07T05:43:13.822Z,91.51
2019-04-07T05:45:06.760Z,91.99
2019-04-07T05:46:08.057Z,92.27
2019-04-07T05:48:00.100Z,92.50
2019-04-07T05:49:00.460Z,92.79
2019-04-07T05:50:52.570Z,92.17
2019-04-07T05:51:52.566Z,92.08
2019-04-07T05:53:47.449Z,89.89
2019-04-07T05:54:49.598Z,88.64
2019-04-07T05:56:39.205Z,86.40
2019-04-07T05:57:38.749Z,85.16
2019-04-07T05:59:31.940Z,83.73
2019-04-07T06:00:31.311Z,82.30
2019-04-07T06:02:24.473Z,82.15
2019-04-07T06:03:24.224Z,80.53
2019-04-07T06:05:17.790Z,79.86
2019-04-07T06:06:19.143Z,79.86
2019-04-07T06:08:22.455Z,78.75
2019-04-07T06:09:10.062Z,78.66
2019-04-07T06:11:02.985Z,76.98
2019-04-07T06:12:05.815Z,76.21
2019-04-07T06:13:56.554Z,75.05
2019-04-07T06:14:56.402Z,74.38
2019-04-07T06:16:52.469Z,72.98
2019-04-07T06:17:49.094Z,71.26
2019-04-07T06:19:42.288Z,69.76
2019-04-07T06:20:44.074Z,69.48
2019-04-07T06:22:34.978Z,68.46
2019-04-07T06:23:35.429Z,67.11
2019-04-07T06:25:34.003Z,65.81
2019-04-07T06:26:27.825Z,65.33
2019-04-07T06:28:20.771Z,64.95
2019-04-07T06:29:24.167Z,64.95
2019-04-07T06:31:14.046Z,64.56
2019-04-07T06:32:13.509Z,64.59
2019-04-07T06:34:08.926Z,64.22
2019-04-07T06:35:06.434Z,63.26
2019-04-07T06:36:59.354Z,63.19
2019-04-07T06:38:04.072Z,63.19
2019-04-07T06:39:52.535Z,62.62
2019-04-07T06:40:56.462Z,61.75
2019-04-07T06:42:45.806Z,62.52
2019-04-07T06:43:45.217Z,61.75
2019-04-07T06:45:38.672Z,62.23
2019-04-07T06:46:38.148Z,62.52
2019-04-07T06:48:31.060Z,63.29
2019-04-07T06:49:31.642Z,63.19
2019-04-07T06:51:24.050Z,64.22
2019-04-07T06:52:24.160Z,64.59
2019-04-07T06:54:21.021Z,64.98
2019-04-07T06:55:16.938Z,65.08
2019-04-07T06:57:10.556Z,65.81
2019-04-07T06:58:10.019Z,66.19
2019-04-07T07:00:02.773Z,66.58
2019-04-07T07:01:03.422Z,66.58
2019-04-07T07:02:56.496Z,66.96
2019-04-07T07:03:56.316Z,67.54
2019-04-07T07:05:49.437Z,68.01
2019-04-07T07:06:48.641Z,67.82
2019-04-07T07:08:45.765Z,68.21
2019-04-07T07:09:41.743Z,67.15
2019-04-07T07:11:35.555Z,67.72
2019-04-07T07:12:38.789Z,67.44
2019-04-07T07:14:38.050Z,67.66
2019-04-07T07:15:28.247Z,67.76
2019-04-07T07:17:21.440Z,67.85
2019-04-07T07:18:22.882Z,67.47
2019-04-07T07:20:13.278Z,66.03
2019-04-07T07:21:13.361Z,65.75
2019-04-07T07:23:07.501Z,65.75
2019-04-07T07:24:06.211Z,65.46
2019-04-07T07:26:02.811Z,65.08
2019-04-07T07:26:59.136Z,64.98
2019-04-07T07:28:52.160Z,65.55
2019-04-07T07:29:53.736Z,65.84
2019-04-07T07:31:44.979Z,65.75
2019-04-07T07:32:44.995Z,64.89
2019-04-07T07:34:39.919Z,64.79
2019-04-07T07:35:38.631Z,64.98
2019-04-07T07:37:31.010Z,65.65
2019-04-07T07:38:32.457Z,65.17
2019-04-07T07:40:24.211Z,65.55
2019-04-07T07:41:24.500Z,65.65
2019-04-07T07:43:16.686Z,64.79
2019-04-07T07:44:16.758Z,64.50
2019-04-07T07:46:09.615Z,63.45
2019-04-07T07:47:10.279Z,63.35
2019-04-07T07:49:02.536Z,64.50
2019-04-07T07:50:05.437Z,64.40
2019-04-07T07:51:55.997Z,63.48
2019-04-07T07:52:56.130Z,63.00
2019-04-07T07:54:48.524Z,61.94
2019-04-07T07:55:49.002Z,63.00
2019-04-07T07:57:41.327Z,63.26
2019-04-07T07:58:41.333Z,63.16
2019-04-07T08:00:37.774Z,64.31
2019-04-07T08:01:34.743Z,63.86
2019-04-07T08:03:27.303Z,63.35
2019-04-07T08:04:27.645Z,63.29
2019-04-07T08:06:20.555Z,64.15
2019-04-07T08:07:20.350Z,63.96
2019-04-07T08:09:15.524Z,63.76
2019-04-07T08:10:13.039Z,63.38
2019-04-07T08:12:06.321Z,64.05
2019-04-07T08:13:07.790Z,64.05
2019-04-07T08:14:58.903Z,62.84
2019-04-07T08:15:59.718Z,61.85
2019-04-07T08:17:52.076Z,61.78
2019-04-07T08:18:52.127Z,62.07
2019-04-07T08:20:45.179Z,62.26
2019-04-07T08:21:45.513Z,61.98
2019-04-07T08:23:38.497Z,61.69
2019-04-07T08:24:37.686Z,60.63
2019-04-07T08:26:31.730Z,61.49
2019-04-07T08:27:32.048Z,59.41
2019-04-07T08:29:23.532Z,59.67
2019-04-07T08:30:23.800Z,60.63
2019-04-07T08:32:16.597Z,60.38
2019-04-07T08:33:16.871Z,60.57
2019-04-07T08:35:09.935Z,59.41
2019-04-07T08:36:11.155Z,59.12
2019-04-07T08:38:02.328Z,59.25
2019-04-07T08:39:02.340Z,58.74
2019-04-07T08:40:55.301Z,58.20
2019-04-07T08:41:56.024Z,57.01
2019-04-07T08:43:48.404Z,57.71
2019-04-07T08:44:48.192Z,58.00
2019-04-07T08:46:43.097Z,56.56
2019-04-07T08:47:41.123Z,57.45
2019-04-07T08:49:35.400Z,55.79
2019-04-07T08:50:34.394Z,55.60
2019-04-07T08:52:27.187Z,55.73
2019-04-07T08:53:26.985Z,55.73
2019-04-07T08:55:21.469Z,56.30
2019-04-07T08:56:19.909Z,56.01
2019-04-07T08:58:23.621Z,55.41
2019-04-07T08:59:16.197Z,55.51
2019-04-07T09:01:06.413Z,56.11
2019-04-07T09:02:06.346Z,55.63
2019-04-07T09:03:58.718Z,55.69
2019-04-07T09:04:58.719Z,55.63
2019-04-07T09:06:51.642Z,55.05
2019-04-07T09:07:51.873Z,54.47
2019-04-07T09:09:47.405Z,55.63
2019-04-07T09:10:45.142Z,55.91
2019-04-07T09:12:37.535Z,55.56
2019-04-07T09:13:37.511Z,54.00
2019-04-07T09:15:30.422Z,53.80
2019-04-07T09:16:31.208Z,53.83
2019-04-07T09:18:23.366Z,53.35
2019-04-07T09:19:23.784Z,54.22
2019-04-07T09:21:18.649Z,52.87
2019-04-07T09:22:20.180Z,53.13
2019-04-07T09:24:09.419Z,52.97
2019-04-07T09:25:09.643Z,53.06
2019-04-07T09:27:02.330Z,52.97
2019-04-07T09:28:02.170Z,52.58
2019-04-07T09:29:57.669Z,51.91
2019-04-07T09:30:55.095Z,51.72
2019-04-07T09:32:48.617Z,51.64
2019-04-07T09:33:48.924Z,52.03
2019-04-07T09:35:41.298Z,51.33
2019-04-07T09:36:41.820Z,51.64
2019-04-07T09:38:34.030Z,50.87
2019-04-07T09:39:50.659Z,51.55
2019-04-07T09:41:28.529Z,51.07
2019-04-07T09:42:26.974Z,50.30
2019-04-07T09:44:19.895Z,51.84
2019-04-07T09:45:19.935Z,52.22
2019-04-07T09:47:15.806Z,51.26
2019-04-07T09:48:13.651Z,52.12
2019-04-07T09:50:05.750Z,51.26
2019-04-07T09:51:07.317Z,51.84
2019-04-07T09:52:58.840Z,52.51
2019-04-07T09:53:58.833Z,52.51
2019-04-07T09:55:53.715Z,52.89
2019-04-07T09:56:51.869Z,52.89
2019-04-07T09:58:45.532Z,52.58
2019-04-07T09:59:48.581Z,52.89
2019-04-07T10:01:37.599Z,54.63
2019-04-07T10:02:38.300Z,53.57
2019-04-07T10:04:30.533Z,52.87
2019-04-07T10:05:30.906Z,53.09
2019-04-07T10:07:24.007Z,53.16
2019-04-07T10:08:23.795Z,53.92
2019-04-07T10:10:17.167Z,53.92
2019-04-07T10:11:17.102Z,54.05
2019-04-07T10:13:09.387Z,52.68
2019-04-07T10:14:09.895Z,53.54
2019-04-07T10:16:02.399Z,53.66
2019-04-07T10:17:02.927Z,53.09
2019-04-07T10:18:55.281Z,52.12
2019-04-07T10:19:55.255Z,52.03
2019-04-07T10:21:48.645Z,51.64
2019-04-07T10:22:48.386Z,51.55
2019-04-07T10:24:41.542Z,52.77
2019-04-07T10:25:41.124Z,52.87
2019-04-07T10:27:34.041Z,52.87
2019-04-07T10:28:34.052Z,52.97
2019-04-07T10:30:27.007Z,52.99
2019-04-07T10:31:27.003Z,52.87
2019-04-07T10:33:19.915Z,52.80
2019-04-07T10:34:19.926Z,52.87
2019-04-07T10:36:13.628Z,53.09
2019-04-07T10:37:13.394Z,52.80
2019-04-07T10:39:06.164Z,52.15
2019-04-07T10:40:16.724Z,51.96
2019-04-07T10:41:58.927Z,51.48
2019-04-07T10:42:59.698Z,51.76
2019-04-07T10:44:52.147Z,52.25
2019-04-07T10:45:51.670Z,52.25
2019-04-07T10:47:44.833Z,51.21
2019-04-07T10:48:44.603Z,50.35
2019-04-07T10:50:37.902Z,51.67
2019-04-07T10:51:37.535Z,51.67
2019-04-07T10:53:32.058Z,52.54
2019-04-07T10:54:30.477Z,51.86
2019-04-07T10:56:24.218Z,49.29
2019-04-07T10:57:23.414Z,48.33
2019-04-07T10:59:16.358Z,47.17
2019-04-07T11:00:16.348Z,46.98
2019-04-07T11:02:10.136Z,46.78
2019-04-07T11:03:09.278Z,47.17
2019-04-07T11:05:02.917Z,48.23
2019-04-07T11:06:02.216Z,47.65
2019-04-07T11:07:55.814Z,46.88
2019-04-07T11:08:55.474Z,47.00
2019-04-07T11:10:48.489Z,45.05
2019-04-07T11:11:49.158Z,46.01
2019-04-07T11:13:40.999Z,46.42
2019-04-07T11:14:41.604Z,46.52
2019-04-07T11:16:33.930Z,45.36
2019-04-07T11:17:34.179Z,44.31
2019-04-07T11:19:28.415Z,45.65
2019-04-07T11:20:27.103Z,46.73
2019-04-07T11:22:20.061Z,45.27
2019-04-07T11:23:19.960Z,44.59
2019-04-07T11:25:13.046Z,44.23
2019-04-07T11:26:13.462Z,45.39
2019-04-07T11:28:06.695Z,42.59
2019-04-07T11:29:06.408Z,42.49
2019-04-07T11:30:58.765Z,42.49
2019-04-07T11:31:59.240Z,42.96
2019-04-07T11:33:52.506Z,41.71
2019-04-07T11:34:51.721Z,41.99
2019-04-07T11:36:45.335Z,41.71
2019-04-07T11:37:45.106Z,41.99
2019-04-07T11:39:37.632Z,42.28
2019-04-07T11:40:45.416Z,42.21
2019-04-07T11:42:30.676Z,42.21
2019-04-07T11:43:30.592Z,41.92
2019-04-07T11:45:23.708Z,43.27
2019-04-07T11:46:24.140Z,43.44
2019-04-07T11:48:16.401Z,43.94
2019-04-07T11:49:16.401Z,43.85
2019-04-07T11:51:09.630Z,43.07
2019-04-07T11:52:09.335Z,42.97
2019-04-07T11:54:03.155Z,42.02
2019-04-07T11:55:02.435Z,42.28
2019-04-07T11:56:55.626Z,42.30
2019-04-07T11:58:09.845Z,43.55
2019-04-07T11:59:48.140Z,41.92
2019-04-07T12:00:48.811Z,42.09
2019-04-07T12:02:42.325Z,42.40
2019-04-07T12:03:41.757Z,42.69
2019-04-07T12:05:33.996Z,41.63
2019-04-07T12:06:34.231Z,41.72
2019-04-07T12:08:32.350Z,41.53
2019-04-07T12:09:26.950Z,41.82
2019-04-07T12:11:20.008Z,41.82
2019-04-07T12:12:20.104Z,39.79
2019-04-07T12:14:15.030Z,39.41
2019-04-07T12:15:13.099Z,40.19
2019-04-07T12:17:08.715Z,41.92
2019-04-07T12:18:07.656Z,41.34
2019-04-07T12:19:59.161Z,41.44
2019-04-07T12:21:02.504Z,42.02
2019-04-07T12:22:51.619Z,41.84
2019-04-07T12:23:52.789Z,41.46
2019-04-07T12:25:44.546Z,36.81
2019-04-07T12:26:45.193Z,35.85
2019-04-07T12:28:37.671Z,36.81
2019-04-07T12:29:37.503Z,36.71
2019-04-07T12:31:31.104Z,37.41
2019-04-07T12:32:30.435Z,37.89
2019-04-07T12:34:23.469Z,37.79
2019-04-07T12:35:23.628Z,38.66
2019-04-07T12:37:16.291Z,39.43
2019-04-07T12:38:16.562Z,39.62
2019-04-07T12:40:09.348Z,38.08
2019-04-07T12:41:15.076Z,38.18
2019-04-07T12:43:02.492Z,37.98
2019-04-07T12:44:02.750Z,38.87
2019-04-07T12:45:55.136Z,38.56
2019-04-07T12:46:55.749Z,38.78
2019-04-07T12:48:48.076Z,37.98
2019-04-07T12:49:48.732Z,37.31
2019-04-07T12:51:41.131Z,37.02
2019-04-07T12:52:40.997Z,37.60
2019-04-07T12:54:34.187Z,39.72
2019-04-07T12:55:33.934Z,40.20
2019-04-07T12:57:26.974Z,39.72
2019-04-07T12:58:27.576Z,38.95
2019-04-07T13:00:22.726Z,39.04
2019-04-07T13:01:20.233Z,39.04
2019-04-07T13:03:12.883Z,38.83
2019-04-07T13:04:13.268Z,39.99
2019-04-07T13:06:06.825Z,40.69
2019-04-07T13:07:05.692Z,41.75
2019-04-07T13:08:58.619Z,41.17
2019-04-07T13:10:02.505Z,41.65
2019-04-07T13:11:51.581Z,38.56
2019-04-07T13:12:53.620Z,38.18
2019-04-07T13:14:44.688Z,37.23
2019-04-07T13:15:47.501Z,36.85
2019-04-07T13:17:38.116Z,37.91
2019-04-07T13:18:39.126Z,39.36
2019-04-07T13:20:31.145Z,40.20
2019-04-07T13:21:30.431Z,39.91
2019-04-07T13:23:23.414Z,36.13
2019-04-07T13:24:31.084Z,36.71
2019-04-07T13:26:16.478Z,39.12
2019-04-07T13:27:16.857Z,39.03
2019-04-07T13:29:10.551Z,39.78
2019-04-07T13:30:09.311Z,39.20
2019-04-07T13:32:03.288Z,40.28
2019-04-07T13:33:03.264Z,40.37
2019-04-07T13:34:55.262Z,40.09
2019-04-07T13:35:56.144Z,38.16
2019-04-07T13:37:48.295Z,37.58
2019-04-07T13:38:49.076Z,37.01
2019-04-07T13:40:45.169Z,38.54
2019-04-07T13:41:45.956Z,38.06
2019-04-07T13:43:35.814Z,38.53
2019-04-07T13:44:36.734Z,38.06
2019-04-07T13:46:31.878Z,37.18
2019-04-07T13:47:26.995Z,37.08
2019-04-07T13:49:24.138Z,38.72
2019-04-07T13:50:19.929Z,38.72
2019-04-07T13:52:17.796Z,38.16
2019-04-07T13:53:12.872Z,36.89
2019-04-07T13:55:07.770Z,38.26
2019-04-07T13:56:06.202Z,38.45
2019-04-07T13:58:00.664Z,38.26
2019-04-07T13:58:58.740Z,37.77
2019-04-07T14:00:52.004Z,36.91
2019-04-07T14:01:54.273Z,37.77
2019-04-07T14:03:44.615Z,37.68
2019-04-07T14:04:44.614Z,38.46
2019-04-07T14:06:38.099Z,40.19
2019-04-07T14:07:38.367Z,41.14
2019-04-07T14:09:32.095Z,41.72
2019-04-07T14:10:33.346Z,41.53
2019-04-07T14:12:23.775Z,40.49
2019-04-07T14:13:23.420Z,41.55
2019-04-07T14:15:16.907Z,41.34
2019-04-07T14:16:17.043Z,41.14
2019-04-07T14:18:10.091Z,41.24
2019-04-07T14:19:09.352Z,41.34
2019-04-07T14:21:02.929Z,42.88
2019-04-07T14:22:02.268Z,43.00
2019-04-07T14:23:55.711Z,41.17
2019-04-07T14:24:56.713Z,40.39
2019-04-07T14:26:48.871Z,42.79
2019-04-07T14:27:48.107Z,42.69
2019-04-07T14:29:41.703Z,42.32
2019-04-07T14:30:41.074Z,42.30
2019-04-07T14:32:33.988Z,42.11
2019-04-07T14:33:34.016Z,42.30
2019-04-07T14:35:27.423Z,41.92
2019-04-07T14:36:28.321Z,40.86
2019-04-07T14:38:21.229Z,41.05
2019-04-07T14:39:20.549Z,40.19
2019-04-07T14:41:13.921Z,39.89
2019-04-07T14:42:13.320Z,39.51
2019-04-07T14:44:07.060Z,39.79
2019-04-07T14:45:06.682Z,40.19
2019-04-07T14:47:00.047Z,40.57
2019-04-07T14:47:59.201Z,41.53
2019-04-07T14:49:53.004Z,40.66
2019-04-07T14:50:52.669Z,41.72
2019-04-07T14:52:45.054Z,41.05
2019-04-07T14:53:46.049Z,41.34
2019-04-07T14:55:37.979Z,40.19
2019-04-07T14:56:38.874Z,41.05
2019-04-07T14:58:31.370Z,41.82
2019-04-07T14:59:30.936Z,40.86
2019-04-07T15:01:23.878Z,40.37
2019-04-07T15:02:24.712Z,40.09
2019-04-07T15:04:16.820Z,40.19
2019-04-07T15:05:18.563Z,40.09
2019-04-07T15:07:10.363Z,40.28
2019-04-07T15:08:10.519Z,41.53
2019-04-07T15:10:03.274Z,41.63
2019-04-07T15:11:02.712Z,41.72
2019-04-07T15:12:55.736Z,41.24
2019-04-07T15:13:57.751Z,40.66
2019-04-07T15:15:51.064Z,40.57
2019-04-07T15:16:49.159Z,40.19
2019-04-07T15:18:42.174Z,41.24
2019-04-07T15:19:41.525Z,41.51
2019-04-07T15:21:34.440Z,41.63
2019-04-07T15:22:34.628Z,40.94
2019-04-07T15:24:27.387Z,41.03
2019-04-07T15:25:28.529Z,41.80
2019-04-07T15:27:24.293Z,41.99
2019-04-07T15:28:20.332Z,41.41
2019-04-07T15:30:15.469Z,41.99
2019-04-07T15:31:13.293Z,42.76
2019-04-07T15:33:07.213Z,41.32
2019-04-07T15:34:08.659Z,41.53
2019-04-07T15:35:59.991Z,41.61
2019-04-07T15:37:00.728Z,41.99
2019-04-07T15:38:55.390Z,42.11
2019-04-07T15:39:52.114Z,41.53
2019-04-07T15:41:45.550Z,41.41
2019-04-07T15:42:49.253Z,41.71
2019-04-07T15:44:39.688Z,42.19
2019-04-07T15:45:39.707Z,42.40
2019-04-07T15:47:31.021Z,41.71
2019-04-07T15:48:31.682Z,41.32
2019-04-07T15:50:24.671Z,41.71
2019-04-07T15:51:23.864Z,41.99
2019-04-07T15:53:17.675Z,41.92
2019-04-07T15:54:20.165Z,41.51
2019-04-07T15:56:13.081Z,41.80
2019-04-07T15:57:10.065Z,41.61
2019-04-07T15:59:03.540Z,40.64
2019-04-07T16:00:04.019Z,41.13
2019-04-07T16:01:56.466Z,41.61
2019-04-07T16:02:55.597Z,41.03
2019-04-07T16:04:49.279Z,41.41
2019-04-07T16:05:49.049Z,41.32
2019-04-07T16:07:41.795Z,42.38
2019-04-07T16:08:41.466Z,42.86
2019-04-07T16:10:34.813Z,41.80
2019-04-07T16:11:34.912Z,42.09
2019-04-07T16:13:28.092Z,42.28
2019-04-07T16:14:27.489Z,42.76
2019-04-07T16:16:20.998Z,42.57
2019-04-07T16:17:21.098Z,42.19
2019-04-07T16:19:18.776Z,42.28
2019-04-07T16:20:20.727Z,42.57
2019-04-07T16:22:06.184Z,41.89
2019-04-07T16:23:06.987Z,41.41
2019-04-07T16:24:59.497Z,41.80
2019-04-07T16:26:00.787Z,41.89
2019-04-07T16:27:51.989Z,41.41
2019-04-07T16:28:52.035Z,41.89
2019-04-07T16:30:47.832Z,42.07
2019-04-07T16:31:44.976Z,41.88
2019-04-07T16:33:38.795Z,42.26
2019-04-07T16:34:40.802Z,42.74
2019-04-07T16:36:30.894Z,42.46
2019-04-07T16:37:31.967Z,42.26
2019-04-07T16:39:23.807Z,41.97
2019-04-07T16:40:23.906Z,41.97
2019-04-07T16:42:17.345Z,41.88
2019-04-07T16:43:17.985Z,42.16
2019-04-07T16:45:13.578Z,42.74
2019-04-07T16:46:10.839Z,42.46
2019-04-07T16:48:04.972Z,41.97
2019-04-07T16:49:02.625Z,41.88
2019-04-07T16:50:55.542Z,42.84
2019-04-07T16:51:58.312Z,42.46
2019-04-07T16:53:48.563Z,42.26
2019-04-07T16:54:48.605Z,42.26
2019-04-07T16:56:41.462Z,42.72
2019-04-07T16:57:41.444Z,42.24
2019-04-07T16:59:36.642Z,42.63
2019-04-07T17:00:34.498Z,42.91
2019-04-07T17:02:27.303Z,43.01
2019-04-07T17:03:27.553Z,43.40
2019-04-07T17:05:21.975Z,43.88
2019-04-07T17:06:20.247Z,43.49
2019-04-07T17:08:17.629Z,43.30
2019-04-07T17:09:13.275Z,43.30
2019-04-07T17:11:07.818Z,43.59
2019-04-07T17:12:09.489Z,43.78
2019-04-07T17:14:01.122Z,43.59
2019-04-07T17:14:59.074Z,43.97
2019-04-07T17:16:51.967Z,43.88
2019-04-07T17:17:53.374Z,44.17
2019-04-07T17:19:45.687Z,44.26
2019-04-07T17:20:44.917Z,44.26
2019-04-07T17:22:37.843Z,44.07
2019-04-07T17:23:38.778Z,44.24
2019-04-07T17:25:32.831Z,44.24
2019-04-07T17:26:30.858Z,44.34
2019-04-07T17:28:23.781Z,44.43
2019-04-07T17:29:24.618Z,44.34
2019-04-07T17:31:17.504Z,44.53
2019-04-07T17:32:16.904Z,44.91
2019-04-07T17:34:11.507Z,44.34
2019-04-07T17:35:12.578Z,44.43
2019-04-07T17:37:02.916Z,44.24
2019-04-07T17:38:05.381Z,44.43
2019-04-07T17:39:55.925Z,44.53
2019-04-07T17:40:55.468Z,44.43
2019-04-07T17:42:52.791Z,44.60
2019-04-07T17:43:53.236Z,44.60
2019-04-07T17:45:41.333Z,44.51
2019-04-07T17:46:41.356Z,44.12
2019-04-07T17:48:40.385Z,44.12
2019-04-07T17:49:35.553Z,44.02
2019-04-07T17:51:27.545Z,44.02
2019-04-07T17:52:27.286Z,44.12
2019-04-07T17:54:21.438Z,44.41
2019-04-07T17:55:21.905Z,43.71
2019-04-07T17:57:13.360Z,44.00
2019-04-07T17:58:13.146Z,43.93
2019-04-07T18:00:06.161Z,43.81
2019-04-07T18:01:06.323Z,44.10
2019-04-07T18:03:04.709Z,44.29
2019-04-07T18:03:59.479Z,44.20
2019-04-07T18:05:53.620Z,44.10
2019-04-07T18:06:52.107Z,44.10
2019-04-07T18:08:45.933Z,44.77
2019-04-07T18:09:45.064Z,44.20
2019-04-07T18:11:38.003Z,44.38
2019-04-07T18:12:38.945Z,44.37
2019-04-07T18:14:31.287Z,44.48
2019-04-07T18:15:31.562Z,44.37
2019-04-07T18:17:26.393Z,44.27
2019-04-07T18:18:26.041Z,44.84
2019-04-07T18:20:17.319Z,44.75
2019-04-07T18:21:18.122Z,44.75
2019-04-07T18:23:09.928Z,45.52
2019-04-07T18:24:10.485Z,45.04
2019-04-07T18:26:06.291Z,45.32
2019-04-07T18:27:02.632Z,45.52
2019-04-07T18:28:55.781Z,45.71
2019-04-07T18:29:59.690Z,45.81
2019-04-07T18:31:48.934Z,45.90
2019-04-07T18:32:49.349Z,46.84